createdAt,value
2022-08-30T00:00:17.077Z,92579.72
2022-08-30T00:03:21.016Z,92569.72
2022-08-30T00:06:25.584Z,92577.41
2022-08-30T00:09:28.687Z,92573.31
2022-08-30T00:12:33.269Z,92562.94
2022-08-30T00:15:36.409Z,92568.84
2022-08-30T00:18:40.743Z,92567.28
2022-08-30T00:21:43.778Z,92552.06
2022-08-30T00:24:46.850Z,92554.53
2022-08-30T00:27:50.568Z,92543.72
2022-08-30T00:30:53.768Z,92554.94
2022-08-30T00:33:56.864Z,92539.16
2022-08-30T00:36:59.909Z,92540.44
2022-08-30T00:40:04.098Z,92532.84
2022-08-30T00:43:13.870Z,92522.75
2022-08-30T00:46:17.279Z,92523.78
2022-08-30T00:49:20.463Z,92521.75
2022-08-30T00:52:24.898Z,92513.19
2022-08-30T00:55:28.751Z,92509.31
2022-08-30T00:58:38.158Z,92517.53
2022-08-30T01:01:43.211Z,92508.69
2022-08-30T01:04:46.978Z,92510.72
2022-08-30T01:07:50.559Z,92502.06
2022-08-30T01:10:54.572Z,92501.41
2022-08-30T01:13:59.069Z,92485.25
2022-08-30T01:17:03.358Z,92481.13
2022-08-30T01:20:26.660Z,92485.50
2022-08-30T01:23:31.010Z,92476.09
2022-08-30T01:26:35.728Z,92475.09
2022-08-30T01:29:38.641Z,92480.81
2022-08-30T01:32:45.958Z,92484.75
2022-08-30T01:35:55.804Z,92486.22
2022-08-30T01:42:03.671Z,92480.16
2022-08-30T01:45:08.385Z,92473.31
2022-08-30T01:48:13.423Z,92469.97
2022-08-30T01:51:17.496Z,92467.69
2022-08-30T01:54:20.566Z,92460.44
2022-08-30T01:57:30.386Z,92471.31
2022-08-30T02:00:33.447Z,92478.19
2022-08-30T02:03:37.044Z,92471.44
2022-08-30T02:06:40.469Z,92467.31
2022-08-30T02:09:43.569Z,92468.16
2022-08-30T02:12:49.435Z,92464.19
2022-08-30T02:15:52.697Z,92456.34
2022-08-30T02:18:57.838Z,92460.75
2022-08-30T02:22:00.945Z,92459.75
2022-08-30T02:25:18.627Z,92456.25
2022-08-30T02:28:24.694Z,92452.84
2022-08-30T02:31:27.695Z,92453.56
2022-08-30T02:34:30.745Z,92464.66
2022-08-30T02:37:33.797Z,92461.00
2022-08-30T02:40:37.332Z,92446.16
2022-08-30T02:43:42.580Z,92462.81
2022-08-30T02:46:46.438Z,92453.75
2022-08-30T02:49:49.493Z,92447.16
2022-08-30T02:52:53.153Z,92447.00
2022-08-30T02:55:57.938Z,92432.59
2022-08-30T02:59:01.804Z,92438.34
2022-08-30T03:02:04.907Z,92434.91
2022-08-30T03:05:13.611Z,92431.44
2022-08-30T03:08:17.326Z,92419.91
2022-08-30T03:11:23.354Z,92424.53
2022-08-30T03:14:27.451Z,92408.41
2022-08-30T03:17:31.831Z,92409.78
2022-08-30T03:20:39.333Z,92409.31
2022-08-30T03:23:44.446Z,92416.66
2022-08-30T03:26:48.078Z,92420.03
2022-08-30T03:29:51.047Z,92419.22
2022-08-30T03:32:54.582Z,92420.38
2022-08-30T03:35:58.175Z,92421.91
2022-08-30T03:39:02.004Z,92421.09
2022-08-30T03:42:05.428Z,92419.84
2022-08-30T03:45:09.690Z,92401.56
2022-08-30T03:48:13.246Z,92409.13
2022-08-30T03:51:17.114Z,92399.41
2022-08-30T03:54:20.288Z,92397.56
2022-08-30T03:57:24.334Z,92398.00
2022-08-30T04:00:28.156Z,92389.72
2022-08-30T04:03:32.271Z,92396.03
2022-08-30T04:06:35.454Z,92390.97
2022-08-30T04:09:38.754Z,92388.41
2022-08-30T04:12:45.062Z,92374.91
2022-08-30T04:15:51.141Z,92369.84
2022-08-30T04:18:54.236Z,92357.50
2022-08-30T04:21:57.967Z,92348.44
2022-08-30T04:25:01.033Z,92358.09
2022-08-30T04:28:05.695Z,92359.63
2022-08-30T04:31:11.777Z,92354.16
2022-08-30T04:34:15.807Z,92346.25
2022-08-30T04:37:18.913Z,92347.38
2022-08-30T04:40:23.814Z,92338.78
2022-08-30T04:43:27.679Z,92334.81
2022-08-30T04:46:31.366Z,92328.66
2022-08-30T04:49:34.409Z,92322.41
2022-08-30T04:52:37.600Z,92329.50
2022-08-30T04:55:42.091Z,92324.78
2022-08-30T04:58:46.261Z,92327.09
2022-08-30T05:01:49.441Z,92320.16
2022-08-30T05:05:11.175Z,92315.84
2022-08-30T05:08:24.320Z,92329.06
2022-08-30T05:11:28.523Z,92322.34
2022-08-30T05:14:31.692Z,92315.97
2022-08-30T05:17:34.862Z,92326.63
2022-08-30T05:20:39.029Z,92327.34
2022-08-30T05:23:43.459Z,92311.06
2022-08-30T05:29:54.292Z,92300.34
2022-08-30T05:32:58.654Z,92302.09
2022-08-30T05:36:01.704Z,92301.59
2022-08-30T05:39:09.425Z,92291.34
2022-08-30T05:42:12.410Z,92297.94
2022-08-30T05:45:19.975Z,92292.63
2022-08-30T05:48:23.008Z,92292.69
2022-08-30T05:51:29.355Z,92293.72
2022-08-30T05:54:32.332Z,92285.06
2022-08-30T05:57:36.966Z,92279.22
2022-08-30T06:00:40.590Z,92281.78
2022-08-30T06:03:43.586Z,92282.59
2022-08-30T06:06:46.792Z,92273.19
2022-08-30T06:09:49.873Z,92275.66
2022-08-30T06:12:52.865Z,92272.53
2022-08-30T06:15:55.982Z,92271.91
2022-08-30T06:19:00.696Z,92269.88
2022-08-30T06:22:03.764Z,92273.34
2022-08-30T06:25:07.416Z,92276.38
2022-08-30T06:28:11.019Z,92281.13
2022-08-30T06:31:15.942Z,92275.28
2022-08-30T06:34:19.129Z,92280.41
2022-08-30T06:37:29.385Z,92280.09
2022-08-30T06:40:33.376Z,92280.59
2022-08-30T06:43:36.690Z,92285.97
2022-08-30T06:46:40.438Z,92269.34
2022-08-30T06:49:43.520Z,92276.38
2022-08-30T06:52:47.610Z,92268.38
2022-08-30T06:56:08.343Z,92272.44
2022-08-30T06:59:11.350Z,92285.94
2022-08-30T07:02:14.804Z,92285.78
2022-08-30T07:05:19.085Z,92284.28
2022-08-30T07:08:23.624Z,92283.13
2022-08-30T07:11:32.403Z,92279.97
2022-08-30T07:14:35.471Z,92284.13
2022-08-30T07:17:56.667Z,92280.16
2022-08-30T07:21:06.230Z,92282.81
2022-08-30T07:24:10.887Z,92280.03
2022-08-30T07:27:14.419Z,92276.69
2022-08-30T07:30:17.603Z,92276.59
2022-08-30T07:33:20.649Z,92278.81
2022-08-30T07:36:25.003Z,92279.28
2022-08-30T07:39:28.094Z,92278.13
2022-08-30T07:42:35.393Z,92281.28
2022-08-30T07:45:39.636Z,92273.88
2022-08-30T07:48:44.224Z,92281.56
2022-08-30T07:51:47.187Z,92275.13
2022-08-30T07:54:52.805Z,92275.06
2022-08-30T07:57:56.403Z,92287.63
2022-08-30T08:01:02.737Z,92276.00
2022-08-30T08:04:05.891Z,92286.94
2022-08-30T08:07:08.931Z,92278.72
2022-08-30T08:10:12.098Z,92280.38
2022-08-30T08:13:15.503Z,92278.78
2022-08-30T08:16:19.229Z,92271.09
2022-08-30T08:19:22.672Z,92267.53
2022-08-30T08:22:25.804Z,92276.56
2022-08-30T08:25:28.903Z,92266.09
2022-08-30T08:28:33.763Z,92262.69
2022-08-30T08:31:37.943Z,92263.25
2022-08-30T08:34:42.142Z,92271.59
2022-08-30T08:37:45.214Z,92267.09
2022-08-30T08:41:26.891Z,92282.25
2022-08-30T08:44:34.829Z,92286.25
2022-08-30T08:48:04.611Z,92278.06
2022-08-30T08:51:29.671Z,92293.88
2022-08-30T08:54:45.223Z,92280.16
2022-08-30T08:57:48.891Z,92286.53
2022-08-30T09:00:57.053Z,92272.38
2022-08-30T09:04:05.083Z,92277.25
2022-08-30T09:07:21.884Z,92283.75
2022-08-30T09:10:46.968Z,92274.38
2022-08-30T09:13:49.900Z,92269.63
2022-08-30T09:17:07.705Z,92270.91
2022-08-30T09:20:11.224Z,92289.47
2022-08-30T09:23:17.377Z,92273.44
2022-08-30T09:26:31.871Z,92279.59
2022-08-30T09:29:35.002Z,92271.50
2022-08-30T09:32:42.265Z,92276.09
2022-08-30T09:35:50.851Z,92285.91
2022-08-30T09:39:34.213Z,92287.19
2022-08-30T09:42:37.867Z,92281.44
2022-08-30T09:45:47.358Z,92288.16
2022-08-30T09:48:53.062Z,92286.91
2022-08-30T09:52:24.358Z,92288.50
2022-08-30T09:55:46.673Z,92289.28
2022-08-30T09:59:16.772Z,92304.16
2022-08-30T10:02:29.429Z,92303.66
2022-08-30T10:05:59.544Z,92313.31
2022-08-30T10:09:23.968Z,92322.03
2022-08-30T10:12:36.980Z,92319.25
2022-08-30T10:15:46.452Z,92307.75
2022-08-30T10:18:58.313Z,92310.41
2022-08-30T10:22:23.571Z,92317.88
2022-08-30T10:25:40.220Z,92319.44
2022-08-30T10:28:48.870Z,92320.22
2022-08-30T10:32:01.392Z,92326.72
2022-08-30T10:35:12.192Z,92318.31
2022-08-30T10:38:32.246Z,92328.13
2022-08-30T10:41:50.704Z,92319.91
2022-08-30T10:45:03.463Z,92326.88
2022-08-30T10:48:30.338Z,92313.16
2022-08-30T10:51:42.714Z,92314.06
2022-08-30T10:54:53.812Z,92316.91
2022-08-30T10:58:02.653Z,92324.03
2022-08-30T11:01:28.586Z,92324.59
2022-08-30T11:05:12.885Z,92330.97
2022-08-30T11:08:34.142Z,92326.13
2022-08-30T11:12:11.621Z,92333.81
2022-08-30T11:15:25.215Z,92335.03
2022-08-30T11:18:32.383Z,92340.88
2022-08-30T11:21:41.816Z,92344.81
2022-08-30T11:25:08.465Z,92342.13
2022-08-30T11:28:39.080Z,92344.63
2022-08-30T11:31:43.341Z,92350.41
2022-08-30T11:34:48.215Z,92365.88
2022-08-30T11:37:52.408Z,92362.19
2022-08-30T11:40:55.422Z,92355.91
2022-08-30T11:44:13.560Z,92359.53
2022-08-30T11:47:45.073Z,92371.69
2022-08-30T11:51:08.977Z,92378.03
2022-08-30T11:54:36.590Z,92370.47
2022-08-30T11:57:59.546Z,92375.41
2022-08-30T12:01:42.275Z,92389.59
2022-08-30T12:04:48.064Z,92387.34
2022-08-30T12:08:05.127Z,92386.91
2022-08-30T12:11:34.307Z,92386.44
2022-08-30T12:14:37.439Z,92391.28
2022-08-30T12:18:02.301Z,92377.59
2022-08-30T12:21:13.947Z,92382.97
2022-08-30T12:24:28.351Z,92383.91
2022-08-30T12:27:34.145Z,92394.63
2022-08-30T12:30:40.717Z,92401.44
2022-08-30T12:33:48.067Z,92401.72
2022-08-30T12:36:59.130Z,92414.59
2022-08-30T12:40:11.593Z,92416.09
2022-08-30T12:43:40.671Z,92412.94
2022-08-30T12:46:48.975Z,92411.84
2022-08-30T12:49:55.037Z,92419.94
2022-08-30T12:53:04.863Z,92424.84
2022-08-30T12:56:14.340Z,92417.13
2022-08-30T12:59:52.867Z,92419.25
2022-08-30T13:03:01.528Z,92414.84
2022-08-30T13:06:08.656Z,92422.91
2022-08-30T13:09:32.589Z,92423.78
2022-08-30T13:12:36.687Z,92422.72
2022-08-30T13:15:43.358Z,92430.13
2022-08-30T13:18:48.278Z,92434.25
2022-08-30T13:21:55.700Z,92440.16
2022-08-30T13:24:59.672Z,92445.00
2022-08-30T13:28:04.052Z,92452.38
2022-08-30T13:31:07.894Z,92451.84
2022-08-30T13:34:13.771Z,92440.84
2022-08-30T13:40:48.253Z,92423.25
2022-08-30T13:50:39.190Z,92428.94
2022-08-30T13:53:57.786Z,92430.50
2022-08-30T13:57:01.145Z,92423.44
2022-08-30T14:00:10.332Z,92423.56
2022-08-30T14:03:16.641Z,92425.13
2022-08-30T14:06:32.821Z,92431.75
2022-08-30T14:09:37.655Z,92440.59
2022-08-30T14:13:02.495Z,92448.75
2022-08-30T14:19:30.612Z,92449.06
2022-08-30T14:22:33.591Z,92455.00
2022-08-30T14:25:36.614Z,92465.41
2022-08-30T14:28:39.865Z,92466.00
2022-08-30T14:31:43.847Z,92474.41
2022-08-30T14:34:47.633Z,92482.09
2022-08-30T14:37:51.112Z,92478.09
2022-08-30T14:40:54.079Z,92466.19
2022-08-30T14:43:57.143Z,92483.34
2022-08-30T14:47:01.007Z,92486.72
2022-08-30T14:50:05.008Z,92484.25
2022-08-30T14:53:08.810Z,92488.91
2022-08-30T14:56:19.506Z,92489.59
2022-08-30T14:59:23.600Z,92494.28
2022-08-30T15:02:27.187Z,92498.19
2022-08-30T15:05:30.870Z,92510.72
2022-08-30T15:08:35.518Z,92518.63
2022-08-30T15:11:39.061Z,92511.13
2022-08-30T15:14:42.091Z,92510.56
2022-08-30T15:17:45.749Z,92524.44
2022-08-30T15:20:50.140Z,92544.84
2022-08-30T15:23:53.982Z,92561.41
2022-08-30T15:26:57.163Z,92560.06
2022-08-30T15:30:00.243Z,92564.06
2022-08-30T15:33:03.684Z,92567.44
2022-08-30T15:36:08.511Z,92559.00
2022-08-30T15:39:14.300Z,92552.47
2022-08-30T15:42:20.130Z,92555.06
2022-08-30T15:45:23.196Z,92554.00
2022-08-30T15:48:26.250Z,92559.41
2022-08-30T15:51:30.831Z,92556.84
2022-08-30T15:54:48.219Z,92556.94
2022-08-30T15:57:51.503Z,92553.09
2022-08-30T16:00:54.625Z,92559.78
2022-08-30T16:03:57.984Z,92571.72
2022-08-30T16:07:01.248Z,92585.59
2022-08-30T16:10:04.741Z,92578.47
2022-08-30T16:13:08.451Z,92576.56
2022-08-30T16:16:12.863Z,92575.34
2022-08-30T16:19:16.661Z,92576.00
2022-08-30T16:22:22.423Z,92574.84
2022-08-30T16:25:25.568Z,92577.44
2022-08-30T16:28:43.648Z,92571.56
2022-08-30T16:31:47.394Z,92563.63
2022-08-30T16:34:50.477Z,92570.78
2022-08-30T16:37:53.529Z,92562.25
2022-08-30T16:40:57.290Z,92547.78
2022-08-30T16:44:00.968Z,92562.25
2022-08-30T16:47:04.047Z,92565.53
2022-08-30T16:50:07.723Z,92570.81
2022-08-30T16:53:12.521Z,92565.53
2022-08-30T16:56:21.095Z,92563.59
2022-08-30T16:59:25.047Z,92565.22
2022-08-30T17:02:28.226Z,92587.38
2022-08-30T17:05:31.452Z,92586.72
2022-08-30T17:08:35.330Z,92588.09
2022-08-30T17:11:40.516Z,92582.22
2022-08-30T17:14:43.707Z,92596.78
2022-08-30T17:17:48.208Z,92594.88
2022-08-30T17:20:51.337Z,92590.97
2022-08-30T17:23:58.433Z,92587.81
2022-08-30T17:27:05.074Z,92599.78
2022-08-30T17:30:09.067Z,92595.31
2022-08-30T17:33:12.286Z,92599.41
2022-08-30T17:36:15.791Z,92615.28
2022-08-30T17:39:19.652Z,92616.06
2022-08-30T17:42:22.794Z,92614.81
2022-08-30T17:45:32.896Z,92610.34
2022-08-30T17:48:38.001Z,92611.06
2022-08-30T17:51:43.241Z,92608.50
2022-08-30T17:54:46.333Z,92606.63
2022-08-30T17:57:50.897Z,92615.25
2022-08-30T18:00:55.823Z,92617.38
2022-08-30T18:04:01.882Z,92625.97
2022-08-30T18:07:11.698Z,92630.63
2022-08-30T18:10:15.353Z,92633.91
2022-08-30T18:13:19.478Z,92633.91
2022-08-30T18:16:26.363Z,92632.03
2022-08-30T18:19:30.976Z,92628.19
2022-08-30T18:22:34.034Z,92637.44
2022-08-30T18:25:37.764Z,92640.19
2022-08-30T18:28:41.809Z,92627.13
2022-08-30T18:31:44.864Z,92631.13
2022-08-30T18:34:47.888Z,92637.72
2022-08-30T18:37:50.957Z,92635.16
2022-08-30T18:41:03.321Z,92634.50
2022-08-30T18:44:26.881Z,92637.25
2022-08-30T18:47:30.428Z,92639.25
2022-08-30T18:50:34.492Z,92634.69
2022-08-30T18:53:37.669Z,92637.41
2022-08-30T18:56:41.368Z,92638.81
2022-08-30T18:59:48.381Z,92637.63
2022-08-30T19:02:51.623Z,92644.25
2022-08-30T19:05:54.995Z,92649.59
2022-08-30T19:08:58.791Z,92649.03
2022-08-30T19:12:03.846Z,92645.78
2022-08-30T19:15:13.092Z,92640.63
2022-08-30T19:18:17.675Z,92647.22
2022-08-30T19:21:21.698Z,92650.53
2022-08-30T19:24:24.770Z,92652.50
2022-08-30T19:27:38.336Z,92646.69
2022-08-30T19:30:43.612Z,92660.41
2022-08-30T19:33:47.467Z,92658.50
2022-08-30T19:36:50.639Z,92659.19
2022-08-30T19:39:53.847Z,92668.38
2022-08-30T19:42:58.747Z,92669.09
2022-08-30T19:46:02.317Z,92665.16
2022-08-30T19:49:07.667Z,92677.63
2022-08-30T19:52:10.719Z,92679.59
2022-08-30T19:55:15.155Z,92678.97
2022-08-30T19:58:19.459Z,92679.66
2022-08-30T20:01:33.675Z,92681.63
2022-08-30T20:04:37.215Z,92684.28
2022-08-30T20:07:44.523Z,92683.66
2022-08-30T20:10:47.731Z,92680.44
2022-08-30T20:13:51.064Z,92683.72
2022-08-30T20:16:54.232Z,92683.09
2022-08-30T20:19:57.246Z,92688.97
2022-08-30T20:23:00.259Z,92703.34
2022-08-30T20:26:05.984Z,92704.00
2022-08-30T20:29:09.489Z,92710.53
2022-08-30T20:32:12.551Z,92713.81
2022-08-30T20:35:16.833Z,92735.38
2022-08-30T20:38:22.000Z,92722.97
2022-08-30T20:41:25.301Z,92723.00
2022-08-30T20:44:28.453Z,92726.94
2022-08-30T20:47:31.838Z,92726.31
2022-08-30T20:50:34.895Z,92724.34
2022-08-30T20:53:38.291Z,92720.41
2022-08-30T20:56:41.726Z,92725.63
2022-08-30T20:59:44.791Z,92734.13
2022-08-30T21:02:48.359Z,92734.16
2022-08-30T21:05:52.038Z,92740.69
2022-08-30T21:08:55.049Z,92736.16
2022-08-30T21:11:58.262Z,92738.75
2022-08-30T21:15:15.310Z,92743.34
2022-08-30T21:18:28.997Z,92740.72
2022-08-30T21:21:33.328Z,92744.00
2022-08-30T21:24:36.383Z,92755.72
2022-08-30T21:27:39.530Z,92744.66
2022-08-30T21:30:42.648Z,92745.28
2022-08-30T21:33:45.643Z,92747.91
2022-08-30T21:36:48.967Z,92757.69
2022-08-30T21:39:52.373Z,92752.47
2022-08-30T21:42:55.452Z,92747.91
2022-08-30T21:45:58.538Z,92759.66
2022-08-30T21:49:03.130Z,92764.88
2022-08-30T21:52:06.498Z,92762.28
2022-08-30T21:55:09.878Z,92758.34
2022-08-30T21:58:13.272Z,92762.91
2022-08-30T22:01:24.902Z,92772.06
2022-08-30T22:04:28.744Z,92774.03
2022-08-30T22:07:31.785Z,92775.97
2022-08-30T22:10:34.964Z,92779.22
2022-08-30T22:13:40.966Z,92781.19
2022-08-30T22:16:44.195Z,92784.47
2022-08-30T22:19:47.399Z,92786.41
2022-08-30T22:22:50.448Z,92784.44
2022-08-30T22:25:53.570Z,92785.75
2022-08-30T22:28:56.647Z,92789.00
2022-08-30T22:32:00.277Z,92789.66
2022-08-30T22:35:03.374Z,92790.22
2022-08-30T22:38:06.472Z,92794.72
2022-08-30T22:41:15.675Z,92793.75
2022-08-30T22:44:19.469Z,92801.31
2022-08-30T22:47:22.497Z,92803.75
2022-08-30T22:50:25.562Z,92810.19
2022-08-30T22:53:28.678Z,92814.78
2022-08-30T22:56:33.405Z,92805.41
2022-08-30T22:59:37.253Z,92810.00
2022-08-30T23:02:40.329Z,92809.19
2022-08-30T23:05:43.617Z,92819.19
2022-08-30T23:08:47.397Z,92818.88
2022-08-30T23:11:50.415Z,92820.94
2022-08-30T23:14:54.325Z,92823.81
2022-08-30T23:17:58.033Z,92821.16
2022-08-30T23:21:26.378Z,92813.69
2022-08-30T23:24:49.105Z,92823.66
2022-08-30T23:28:10.576Z,92835.72
2022-08-30T23:31:36.766Z,92842.22
2022-08-30T23:34:58.094Z,92841.69
2022-08-30T23:38:23.893Z,92847.00
2022-08-30T23:41:45.334Z,92849.19
2022-08-30T23:45:06.860Z,92867.13
2022-08-30T23:48:28.155Z,92866.72
2022-08-30T23:51:49.701Z,92872.59
2022-08-30T23:55:11.096Z,92880.13
2022-08-30T23:58:33.072Z,92886.44
